Time;durP1;ratioP1;P1;durP2;ratioP2;P2;SDS_P1;SDS_P2;PMS_P1;PMS_P2;Temp;Humidity;BMP_temperature;BMP_pressure;BME280_temperature;BME280_humidity;BME280_pressure;Samples;Min_cycle;Max_cycle;Signal;HPM_P1;HPM_P2
2022/06/23 00:01:41;;;;;;;9.57;7.78;;;;;;;;;;5067648;28;20134;-73
2022/06/23 00:04:11;;;;;;;11.05;7.43;;;;;;;;;;5077619;28;20144;-73
2022/06/23 00:06:42;;;;;;;8.55;7.00;;;;;;;;;;5086430;28;20078;-73
2022/06/23 00:09:27;;;;;;;8.63;7.38;;;;;;;;;;5083040;28;20057;-73
2022/06/23 00:11:54;;;;;;;8.35;7.45;;;;;;;;;;5067195;28;20109;-73
2022/06/23 00:14:20;;;;;;;11.05;7.43;;;;;;;;;;5077282;28;20096;-73
2022/06/23 00:16:46;;;;;;;10.55;6.97;;;;;;;;;;5070883;28;20053;-73
2022/06/23 00:19:13;;;;;;;10.65;7.65;;;;;;;;;;5067314;28;20033;-73
2022/06/23 00:21:40;;;;;;;12.90;8.45;;;;;;;;;;5096911;28;20048;-74
2022/06/23 00:24:14;;;;;;;9.52;8.50;;;;;;;;;;5089439;28;20123;-74
2022/06/23 00:26:40;;;;;;;9.13;8.13;;;;;;;;;;5072296;28;20052;-73
2022/06/23 00:29:10;;;;;;;9.75;7.65;;;;;;;;;;5066983;28;20047;-74
2022/06/23 00:31:36;;;;;;;9.07;7.35;;;;;;;;;;5067186;28;20040;-73
2022/06/23 00:34:14;;;;;;;9.57;7.88;;;;;;;;;;5080854;28;20049;-73
2022/06/23 00:36:43;;;;;;;8.70;7.80;;;;;;;;;;5082763;28;20059;-73
2022/06/23 00:39:39;;;;;;;13.98;8.20;;;;;;;;;;5081060;28;20048;-73
2022/06/23 00:42:07;;;;;;;13.85;8.50;;;;;;;;;;5066121;28;20082;-74
2022/06/23 00:44:33;;;;;;;;;;;;;;;;;;5067251;28;20380;-74
2022/06/23 00:47:02;;;;;;;10.80;8.27;;;;;;;;;;5081775;28;20201;-73
2022/06/23 00:49:31;;;;;;;12.32;8.27;;;;;;;;;;5082159;28;20040;-73
2022/06/23 00:52:00;;;;;;;10.27;9.10;;;;;;;;;;5086670;28;20051;-72
2022/06/23 00:54:30;;;;;;;12.25;9.73;;;;;;;;;;5086607;28;20135;-73
2022/06/23 00:57:03;;;;;;;10.35;9.15;;;;;;;;;;5066592;28;20136;-73
2022/06/23 00:59:49;;;;;;;10.77;9.35;;;;;;;;;;5066652;28;20056;-74
2022/06/23 01:02:17;;;;;;;11.25;9.65;;;;;;;;;;5075123;28;20037;-74
2022/06/23 01:04:43;;;;;;;;;;;;;;;;;;5071798;28;20210;-74
2022/06/23 01:07:15;;;;;;;15.45;10.27;;;;;;;;;;5073593;28;20125;-74
2022/06/23 01:10:08;;;;;;;11.35;9.02;;;;;;;;;;5072720;28;20101;-74
2022/06/23 01:12:37;;;;;;;15.05;9.93;;;;;;;;;;5066571;28;20052;-74
2022/06/23 01:15:12;;;;;;;15.18;9.98;;;;;;;;;;5068001;28;20045;-74
2022/06/23 01:17:41;;;;;;;12.63;10.05;;;;;;;;;;5086330;28;20052;-74
2022/06/23 01:20:26;;;;;;;15.02;9.30;;;;;;;;;;5069237;28;20392;-73
2022/06/23 01:22:52;;;;;;;16.17;10.30;;;;;;;;;;5091921;28;20051;-73
2022/06/23 01:25:18;;;;;;;12.57;10.70;;;;;;;;;;5082199;28;20098;-73
2022/06/23 01:27:56;;;;;;;17.27;11.52;;;;;;;;;;5065896;28;20041;-73
2022/06/23 01:30:23;;;;;;;16.67;10.98;;;;;;;;;;5095545;28;20049;-75
2022/06/23 01:33:05;;;;;;;15.40;10.77;;;;;;;;;;5093022;28;20044;-74
2022/06/23 01:35:33;;;;;;;15.55;11.40;;;;;;;;;;5101610;28;20551;-73
2022/06/23 01:38:04;;;;;;;13.30;10.57;;;;;;;;;;5082424;28;20062;-73
2022/06/23 01:40:36;;;;;;;19.42;11.23;;;;;;;;;;5094117;28;20110;-74
2022/06/23 01:43:05;;;;;;;19.35;11.90;;;;;;;;;;5092054;28;20047;-74
2022/06/23 01:45:34;;;;;;;17.67;11.20;;;;;;;;;;5065456;28;20049;-74
2022/06/23 01:48:13;;;;;;;17.13;11.38;;;;;;;;;;5081023;28;20100;-74
2022/06/23 01:50:44;;;;;;;18.58;11.52;;;;;;;;;;5079776;28;20093;-74
2022/06/23 01:53:27;;;;;;;14.45;11.05;;;;;;;;;;5080598;28;20064;-74
2022/06/23 01:56:12;;;;;;;16.67;11.38;;;;;;;;;;5080716;28;20074;-74
2022/06/23 01:58:48;;;;;;;13.98;10.93;;;;;;;;;;5080102;28;20053;-73
2022/06/23 02:01:24;;;;;;;18.73;11.50;;;;;;;;;;5084046;28;20041;-73
2022/06/23 02:03:52;;;;;;;14.27;11.25;;;;;;;;;;5073005;28;20053;-73
2022/06/23 02:06:29;;;;;;;19.30;12.05;;;;;;;;;;5068932;28;20040;-73
2022/06/23 02:09:18;;;;;;;17.73;11.95;;;;;;;;;;5085343;28;20052;-72
2022/06/23 02:11:47;;;;;;;17.00;11.30;;;;;;;;;;5071779;28;20048;-73
2022/06/23 02:14:39;;;;;;;15.95;10.55;;;;;;;;;;5070622;28;20491;-73
2022/06/23 02:17:28;;;;;;;15.52;11.48;;;;;;;;;;5065002;28;20104;-73
2022/06/23 02:19:55;;;;;;;17.33;11.82;;;;;;;;;;5064828;28;20040;-73
2022/06/23 02:22:32;;;;;;;20.10;11.90;;;;;;;;;;5090749;28;20052;-73
2022/06/23 02:25:04;;;;;;;16.33;11.55;;;;;;;;;;5080098;28;20098;-73
2022/06/23 02:27:41;;;;;;;15.93;11.15;;;;;;;;;;5064644;28;20520;-73
2022/06/23 02:30:13;;;;;;;16.83;11.32;;;;;;;;;;5078883;28;20401;-73
2022/06/23 02:32:39;;;;;;;17.98;12.32;;;;;;;;;;5064803;28;20226;-73
2022/06/23 02:35:12;;;;;;;16.67;11.80;;;;;;;;;;5079919;28;20057;-73
2022/06/23 02:37:45;;;;;;;20.23;11.65;;;;;;;;;;5064752;28;20044;-74
2022/06/23 02:40:23;;;;;;;17.77;11.65;;;;;;;;;;5082627;28;20048;-74
2022/06/23 02:42:56;;;;;;;19.92;13.38;;;;;;;;;;5084660;28;20057;-74
2022/06/23 02:45:25;;;;;;;19.30;12.73;;;;;;;;;;5081129;28;20088;-73
2022/06/23 02:48:10;;;;;;;18.23;12.80;;;;;;;;;;5064703;28;20132;-74
2022/06/23 02:50:49;;;;;;;18.55;12.50;;;;;;;;;;5064599;28;20067;-73
2022/06/23 02:53:21;;;;;;;21.50;13.05;;;;;;;;;;5075985;28;20253;-74
2022/06/23 02:56:00;;;;;;;18.58;12.32;;;;;;;;;;5065967;28;20091;-74
2022/06/23 02:58:29;;;;;;;23.50;12.50;;;;;;;;;;5076451;28;20052;-74
2022/06/23 03:01:13;;;;;;;21.75;13.10;;;;;;;;;;5070198;28;20037;-74
2022/06/23 03:03:52;;;;;;;21.17;12.90;;;;;;;;;;5070986;28;20218;-75
2022/06/23 03:06:24;;;;;;;21.50;11.52;;;;;;;;;;5071078;28;20056;-74
2022/06/23 03:09:04;;;;;;;21.77;12.55;;;;;;;;;;5072042;28;20412;-74
2022/06/23 03:11:52;;;;;;;24.05;13.73;;;;;;;;;;5068736;28;20514;-73
2022/06/23 03:14:36;;;;;;;19.98;12.13;;;;;;;;;;5068285;28;20049;-74
2022/06/23 03:17:14;;;;;;;23.27;12.43;;;;;;;;;;5068549;28;20063;-74
2022/06/23 03:19:49;;;;;;;25.38;13.55;;;;;;;;;;5087350;28;20102;-75
2022/06/23 03:22:22;;;;;;;24.48;14.27;;;;;;;;;;5092011;28;20138;-75
2022/06/23 03:25:00;;;;;;;21.80;13.02;;;;;;;;;;5073405;28;20044;-75
2022/06/23 03:27:27;;;;;;;23.48;12.73;;;;;;;;;;5075348;28;20083;-75
2022/06/23 03:29:56;;;;;;;23.05;13.10;;;;;;;;;;5082225;28;20041;-74
2022/06/23 03:32:29;;;;;;;22.38;13.35;;;;;;;;;;5083547;28;20056;-75
2022/06/23 03:34:58;;;;;;;21.85;13.00;;;;;;;;;;5068046;28;20045;-74
2022/06/23 03:37:34;;;;;;;22.10;12.73;;;;;;;;;;5068141;28;20052;-75
2022/06/23 03:42:50;;;;;;;20.90;13.40;;;;;;;;;;5087752;28;20051;-74
2022/06/23 03:45:23;;;;;;;20.25;12.85;;;;;;;;;;5072814;28;20493;-75
2022/06/23 03:48:12;;;;;;;24.27;13.45;;;;;;;;;;5079318;28;20096;-74
2022/06/23 03:50:44;;;;;;;21.05;13.32;;;;;;;;;;5097619;28;20045;-74
2022/06/23 03:53:14;;;;;;;19.70;12.40;;;;;;;;;;5083143;28;20435;-74
2022/06/23 03:55:43;;;;;;;18.17;12.10;;;;;;;;;;5071126;28;20450;-74
2022/06/23 03:58:24;;;;;;;18.85;12.38;;;;;;;;;;5087575;28;20040;-74
2022/06/23 04:00:59;;;;;;;21.67;12.82;;;;;;;;;;5099386;28;20500;-74
2022/06/23 04:03:29;;;;;;;14.82;10.32;;;;;;;;;;5078680;28;20048;-74
2022/06/23 04:05:55;;;;;;;21.92;13.10;;;;;;;;;;5083943;28;20047;-74
2022/06/23 04:08:26;;;;;;;19.20;12.45;;;;;;;;;;5067705;28;20041;-75
2022/06/23 04:10:53;;;;;;;17.20;12.25;;;;;;;;;;5085216;28;20063;-74
2022/06/23 04:13:30;;;;;;;17.77;12.85;;;;;;;;;;5078706;28;20518;-74
2022/06/23 04:16:01;;;;;;;18.05;12.65;;;;;;;;;;5067413;28;20045;-75
2022/06/23 04:18:29;;;;;;;15.88;11.65;;;;;;;;;;5067388;28;20049;-75
2022/06/23 04:21:04;;;;;;;18.63;12.23;;;;;;;;;;5080456;28;20048;-74
2022/06/23 04:23:33;;;;;;;21.13;12.40;;;;;;;;;;5082843;28;20053;-75
2022/06/23 04:26:18;;;;;;;16.13;11.68;;;;;;;;;;5081149;28;20041;-75
2022/06/23 04:28:46;;;;;;;16.70;12.05;;;;;;;;;;5092128;28;20048;-74
2022/06/23 04:31:12;;;;;;;;;;;;;;;;;;5087537;28;20045;-74
2022/06/23 04:33:39;;;;;;;13.20;10.57;;;;;;;;;;5086881;28;19978;-76
2022/06/23 04:36:06;;;;;;;18.58;12.23;;;;;;;;;;5087343;28;20044;-75
2022/06/23 04:38:47;;;;;;;13.38;10.98;;;;;;;;;;5073084;28;20127;-76
2022/06/23 04:41:29;;;;;;;13.40;10.20;;;;;;;;;;5082958;28;20120;-74
2022/06/23 04:44:02;;;;;;;19.67;11.52;;;;;;;;;;5082256;28;20064;-75
2022/06/23 04:46:31;;;;;;;15.57;10.77;;;;;;;;;;5066983;28;20119;-75
2022/06/23 04:48:59;;;;;;;14.15;10.52;;;;;;;;;;5066598;28;20047;-75
2022/06/23 04:51:33;;;;;;;13.68;9.82;;;;;;;;;;5066659;28;20045;-75
2022/06/23 04:54:06;;;;;;;15.68;10.48;;;;;;;;;;5081721;28;20132;-75
2022/06/23 04:56:40;;;;;;;13.57;10.07;;;;;;;;;;5077087;28;20036;-75
2022/06/23 04:59:18;;;;;;;22.88;11.57;;;;;;;;;;5085393;28;20110;-76
2022/06/23 05:01:46;;;;;;;12.63;10.63;;;;;;;;;;5075625;28;20041;-77
2022/06/23 05:04:12;;;;;;;;;;;;;;;;;;5080605;28;20041;-75
2022/06/23 05:06:43;;;;;;;12.85;9.88;;;;;;;;;;5066355;28;19967;-76
2022/06/23 05:09:17;;;;;;;13.02;10.05;;;;;;;;;;5080422;28;20237;-76
2022/06/23 05:11:48;;;;;;;13.05;10.07;;;;;;;;;;5066120;28;20045;-72
2022/06/23 05:14:17;;;;;;;12.75;9.60;;;;;;;;;;5066148;28;20044;-74
2022/06/23 05:16:46;;;;;;;12.80;9.27;;;;;;;;;;5090379;28;20100;-75
2022/06/23 05:19:18;;;;;;;12.90;9.35;;;;;;;;;;5086199;28;20076;-75
2022/06/23 05:21:50;;;;;;;13.02;9.43;;;;;;;;;;5078197;28;20067;-76
2022/06/23 05:24:19;;;;;;;12.45;9.48;;;;;;;;;;5066849;28;20492;-75
2022/06/23 05:26:57;;;;;;;11.60;9.38;;;;;;;;;;5078680;28;20071;-74
2022/06/23 05:29:43;;;;;;;16.88;9.68;;;;;;;;;;5066803;28;20056;-74
2022/06/23 05:32:15;;;;;;;10.48;9.38;;;;;;;;;;5085478;28;20037;-75
2022/06/23 05:34:50;;;;;;;17.50;10.10;;;;;;;;;;5077070;28;20060;-76
2022/06/23 05:37:24;;;;;;;10.13;8.23;;;;;;;;;;5085523;28;20071;-75
2022/06/23 05:39:55;;;;;;;10.88;8.75;;;;;;;;;;5085643;28;20049;-75
2022/06/23 05:42:26;;;;;;;11.43;8.27;;;;;;;;;;5100978;28;20086;-76
2022/06/23 05:44:57;;;;;;;14.20;10.35;;;;;;;;;;5087145;28;20123;-75
2022/06/23 05:47:24;;;;;;;15.85;9.23;;;;;;;;;;5082955;28;20045;-76
2022/06/23 05:49:55;;;;;;;11.85;8.85;;;;;;;;;;5085585;28;20049;-76
2022/06/23 05:52:24;;;;;;;11.52;8.55;;;;;;;;;;5066046;28;20083;-75
2022/06/23 05:54:54;;;;;;;10.57;8.75;;;;;;;;;;5080793;28;20169;-76
2022/06/23 05:57:24;;;;;;;12.05;8.82;;;;;;;;;;5073109;28;20052;-74
2022/06/23 05:59:50;;;;;;;13.23;9.00;;;;;;;;;;5098910;28;20053;-75
2022/06/23 06:02:21;;;;;;;10.82;9.25;;;;;;;;;;5079644;28;20045;-75
2022/06/23 06:04:52;;;;;;;15.75;8.55;;;;;;;;;;5070606;28;20032;-75
2022/06/23 06:07:21;;;;;;;11.57;9.07;;;;;;;;;;5091660;28;20456;-74
2022/06/23 06:09:48;;;;;;;15.60;8.57;;;;;;;;;;5077606;28;20467;-75
2022/06/23 06:12:26;;;;;;;9.63;8.63;;;;;;;;;;5078683;28;20044;-74
2022/06/23 06:15:01;;;;;;;13.23;8.95;;;;;;;;;;5078478;28;20064;-74
2022/06/23 06:17:28;;;;;;;9.73;8.05;;;;;;;;;;5077951;28;20048;-74
2022/06/23 06:19:56;;;;;;;19.00;8.38;;;;;;;;;;5081720;28;20078;-74
2022/06/23 06:22:25;;;;;;;13.68;7.25;;;;;;;;;;5094153;28;20123;-74
2022/06/23 06:24:52;;;;;;;10.50;8.27;;;;;;;;;;5065549;28;20057;-73
2022/06/23 06:27:18;;;;;;;;;;;;;;;;;;5065227;28;20193;-73
2022/06/23 06:29:45;;;;;;;11.68;9.02;;;;;;;;;;5080234;28;20407;-73
2022/06/23 06:32:30;;;;;;;17.50;7.50;;;;;;;;;;5064977;28;20077;-73
2022/06/23 06:35:14;;;;;;;17.45;7.75;;;;;;;;;;5064459;28;20275;-72
2022/06/23 06:37:44;;;;;;;10.52;7.32;;;;;;;;;;5064660;28;20037;-74
2022/06/23 06:40:10;;;;;;;13.57;8.43;;;;;;;;;;5081846;28;20072;-73
2022/06/23 06:42:38;;;;;;;13.88;8.07;;;;;;;;;;5075834;28;20143;-73
2022/06/23 06:45:07;;;;;;;9.30;7.20;;;;;;;;;;5078715;28;20040;-73
2022/06/23 06:47:35;;;;;;;9.77;7.75;;;;;;;;;;5080204;28;20104;-73
2022/06/23 06:50:05;;;;;;;10.57;7.53;;;;;;;;;;5077464;28;20036;-73
2022/06/23 06:52:32;;;;;;;11.60;7.93;;;;;;;;;;5063728;28;20057;-73
2022/06/23 06:55:01;;;;;;;12.15;8.25;;;;;;;;;;5064621;28;20060;-73
2022/06/23 06:57:36;;;;;;;10.25;7.15;;;;;;;;;;5078695;28;20479;-74
2022/06/23 07:00:08;;;;;;;8.65;6.28;;;;;;;;;;5064430;28;20075;-74
2022/06/23 07:02:38;;;;;;;10.88;7.43;;;;;;;;;;5079866;28;20107;-73
2022/06/23 07:05:10;;;;;;;9.60;6.68;;;;;;;;;;5064457;28;20053;-73
2022/06/23 07:07:41;;;;;;;10.10;6.85;;;;;;;;;;5067856;28;20049;-73
2022/06/23 07:10:45;;;;;;;7.95;7.07;;;;;;;;;;5100331;28;20040;-73
2022/06/23 07:13:14;;;;;;;7.75;6.15;;;;;;;;;;5062008;28;20548;-73
2022/06/23 07:15:44;;;;;;;10.02;5.80;;;;;;;;;;5062085;28;20049;-73
2022/06/23 07:18:16;;;;;;;10.48;6.47;;;;;;;;;;5048286;28;20627;-73
2022/06/23 07:21:00;;;;;;;10.20;6.60;;;;;;;;;;5061885;28;20072;-73
2022/06/23 07:23:49;;;;;;;8.02;6.30;;;;;;;;;;5045400;28;20084;-71
2022/06/23 07:26:15;;;;;;;;;;;;;;;;;;5052147;28;20064;-71
2022/06/23 07:28:45;;;;;;;11.60;6.97;;;;;;;;;;5061774;28;20024;-71
2022/06/23 07:31:14;;;;;;;9.25;6.55;;;;;;;;;;5061579;28;20061;-71
2022/06/23 07:34:09;;;;;;;8.35;6.03;;;;;;;;;;5061679;28;20056;-71
2022/06/23 07:36:38;;;;;;;10.40;6.80;;;;;;;;;;5045139;28;20140;-71
2022/06/23 07:39:15;;;;;;;9.40;5.57;;;;;;;;;;5061499;28;20045;-71
2022/06/23 07:41:51;;;;;;;7.82;5.15;;;;;;;;;;5061529;28;20053;-72
2022/06/23 07:44:17;;;;;;;9.70;6.60;;;;;;;;;;5055499;28;20055;-72
2022/06/23 07:46:43;;;;;;;8.07;6.15;;;;;;;;;;5079496;28;20053;-71
2022/06/23 07:49:10;;;;;;;9.73;5.78;;;;;;;;;;5079631;28;20105;-71
2022/06/23 07:51:37;;;;;;;13.63;6.70;;;;;;;;;;5064073;28;20041;-71
2022/06/23 07:54:04;;;;;;;6.88;5.50;;;;;;;;;;5093466;28;20064;-72
2022/06/23 07:56:32;;;;;;;9.70;5.95;;;;;;;;;;5066268;28;20052;-72
2022/06/23 07:59:24;;;;;;;8.48;5.78;;;;;;;;;;5085608;28;20426;-72
2022/06/23 08:01:53;;;;;;;8.10;5.03;;;;;;;;;;5074507;28;20056;-73
2022/06/23 08:04:43;;;;;;;6.03;5.13;;;;;;;;;;5067533;28;20033;-73
2022/06/23 08:07:10;;;;;;;6.90;5.60;;;;;;;;;;5067737;28;20439;-73
2022/06/23 08:09:51;;;;;;;7.72;5.80;;;;;;;;;;5073557;28;20040;-74
2022/06/23 08:18:14;;;;;;;8.68;4.65;;;;;;;;;;5067247;28;20048;-74
2022/06/23 08:20:43;;;;;;;8.18;5.15;;;;;;;;;;5067251;28;20527;-74
2022/06/23 08:23:10;;;;;;;8.32;5.60;;;;;;;;;;5067124;28;20096;-74
2022/06/23 08:25:36;;;;;;;10.10;5.55;;;;;;;;;;5067300;28;20329;-73
2022/06/23 08:28:02;;;;;;;8.65;4.95;;;;;;;;;;5067056;28;20528;-73
2022/06/23 08:30:28;;;;;;;9.95;4.82;;;;;;;;;;5082696;28;20108;-74
2022/06/23 08:32:56;;;;;;;8.70;5.10;;;;;;;;;;5082573;28;20078;-73
2022/06/23 08:35:37;;;;;;;6.75;5.30;;;;;;;;;;5067025;28;20037;-73
2022/06/23 08:38:12;;;;;;;9.55;5.45;;;;;;;;;;5067120;28;20045;-73
2022/06/23 08:40:57;;;;;;;9.10;4.97;;;;;;;;;;5091882;28;20064;-72
2022/06/23 08:43:30;;;;;;;9.73;5.20;;;;;;;;;;5072538;28;20049;-72
2022/06/23 08:46:17;;;;;;;7.05;4.80;;;;;;;;;;5082241;28;20060;-73
2022/06/23 08:48:59;;;;;;;8.82;5.72;;;;;;;;;;5097334;28;20096;-73
2022/06/23 08:51:35;;;;;;;9.82;4.93;;;;;;;;;;5076584;28;20094;-72
2022/06/23 08:54:24;;;;;;;10.30;5.22;;;;;;;;;;5070008;28;20059;-73
2022/06/23 08:57:09;;;;;;;7.47;5.22;;;;;;;;;;5076211;28;20428;-72
2022/06/23 08:59:39;;;;;;;7.85;4.43;;;;;;;;;;5066623;28;20047;-73
2022/06/23 09:02:11;;;;;;;7.60;4.72;;;;;;;;;;5080698;28;20037;-72
2022/06/23 09:04:44;;;;;;;9.23;4.85;;;;;;;;;;5066107;28;20055;-73
2022/06/23 09:07:33;;;;;;;5.82;4.90;;;;;;;;;;5066341;28;20045;-72
2022/06/23 09:10:11;;;;;;;5.75;4.28;;;;;;;;;;5066478;28;20055;-73
2022/06/23 09:12:45;;;;;;;4.57;3.70;;;;;;;;;;5066162;28;20141;-72
2022/06/23 09:15:11;;;;;;;6.50;4.00;;;;;;;;;;5082003;28;20056;-72
2022/06/23 09:17:48;;;;;;;6.93;4.65;;;;;;;;;;5066114;28;20048;-72
2022/06/23 09:20:32;;;;;;;6.10;4.55;;;;;;;;;;5066446;28;20061;-72
2022/06/23 09:23:08;;;;;;;8.02;4.40;;;;;;;;;;5070032;28;20040;-72
2022/06/23 09:25:34;;;;;;;7.47;3.72;;;;;;;;;;5074722;28;20072;-71
2022/06/23 09:28:29;;;;;;;3.90;3.35;;;;;;;;;;5065704;28;20045;-72
2022/06/23 09:31:15;;;;;;;5.65;3.78;;;;;;;;;;5076914;28;20052;-71
2022/06/23 09:34:00;;;;;;;10.40;4.60;;;;;;;;;;5071381;28;20117;-72
2022/06/23 09:36:26;;;;;;;4.88;4.00;;;;;;;;;;5083340;28;20091;-71
2022/06/23 09:39:14;;;;;;;5.65;4.10;;;;;;;;;;5066717;28;20108;-71
2022/06/23 09:41:51;;;;;;;6.75;3.72;;;;;;;;;;5066447;28;20769;-72
2022/06/23 09:44:36;;;;;;;6.47;3.30;;;;;;;;;;5066573;28;20047;-72
2022/06/23 09:47:05;;;;;;;7.30;2.78;;;;;;;;;;5066449;28;20067;-71
2022/06/23 09:49:43;;;;;;;4.13;3.15;;;;;;;;;;5066365;28;20048;-71
2022/06/23 09:52:09;;;;;;;;;;;;;;;;;;5066771;28;20053;-71
2022/06/23 09:54:53;;;;;;;3.45;1.70;;;;;;;;;;5066379;28;19920;-72
2022/06/23 09:57:30;;;;;;;5.95;3.28;;;;;;;;;;5082948;28;20056;-71
2022/06/23 10:00:17;;;;;;;6.20;3.00;;;;;;;;;;5066248;28;20048;-72
2022/06/23 10:02:48;;;;;;;3.92;2.13;;;;;;;;;;5082758;28;20048;-72
2022/06/23 10:05:24;;;;;;;5.10;2.90;;;;;;;;;;5082695;28;20059;-72
2022/06/23 10:08:09;;;;;;;6.13;2.58;;;;;;;;;;5084440;28;20113;-72
2022/06/23 10:10:44;;;;;;;3.78;2.35;;;;;;;;;;5071151;28;20056;-72
2022/06/23 10:13:16;;;;;;;2.50;1.65;;;;;;;;;;5072213;28;20825;-71
2022/06/23 10:16:05;;;;;;;4.63;2.00;;;;;;;;;;5084870;28;20167;-71
2022/06/23 10:18:31;;;;;;;5.32;2.38;;;;;;;;;;5064508;28;20587;-72
2022/06/23 10:21:03;;;;;;;5.72;2.10;;;;;;;;;;5066343;28;20115;-71
2022/06/23 10:23:48;;;;;;;5.15;2.45;;;;;;;;;;5076962;28;20045;-72
2022/06/23 10:26:43;;;;;;;5.57;2.40;;;;;;;;;;5079099;28;20059;-72
2022/06/23 10:29:28;;;;;;;7.43;2.28;;;;;;;;;;5064163;28;20072;-72
2022/06/23 10:32:09;;;;;;;4.55;1.90;;;;;;;;;;5096989;28;20057;-72
2022/06/23 10:34:38;;;;;;;3.95;1.85;;;;;;;;;;5064604;28;20049;-72
2022/06/23 10:37:23;;;;;;;3.92;1.92;;;;;;;;;;5080390;28;20557;-71
2022/06/23 10:40:12;;;;;;;7.70;2.10;;;;;;;;;;5097145;28;20094;-71
2022/06/23 10:42:38;;;;;;;;;;;;;;;;;;5065019;28;20056;-72
2022/06/23 10:45:04;;;;;;;3.60;1.95;;;;;;;;;;5064584;28;19920;-71
2022/06/23 10:47:42;;;;;;;3.83;1.75;;;;;;;;;;5070862;28;20049;-71
2022/06/23 10:50:27;;;;;;;5.22;2.10;;;;;;;;;;5083480;28;20079;-72
2022/06/23 10:53:11;;;;;;;4.10;1.75;;;;;;;;;;5072756;28;20136;-72
2022/06/23 10:55:41;;;;;;;4.90;2.15;;;;;;;;;;5081627;28;20109;-72
2022/06/23 10:58:07;;;;;;;3.63;1.70;;;;;;;;;;5064683;28;20100;-72
2022/06/23 11:00:42;;;;;;;4.47;1.88;;;;;;;;;;5064548;28;20052;-72
2022/06/23 11:03:08;;;;;;;2.00;1.58;;;;;;;;;;5064452;28;20049;-73
2022/06/23 11:06:00;;;;;;;2.40;1.85;;;;;;;;;;5064527;28;20076;-72
2022/06/23 11:08:26;;;;;;;4.05;2.17;;;;;;;;;;5064383;28;20081;-72
2022/06/23 11:11:11;;;;;;;4.38;1.92;;;;;;;;;;5078460;28;20072;-72
2022/06/23 11:14:00;;;;;;;4.90;2.15;;;;;;;;;;5064185;28;20049;-72
2022/06/23 11:16:31;;;;;;;4.85;2.17;;;;;;;;;;5064448;28;20049;-72
2022/06/23 11:19:15;;;;;;;3.40;2.00;;;;;;;;;;5079943;28;20559;-72
2022/06/23 11:21:59;;;;;;;5.15;1.63;;;;;;;;;;5071859;28;20060;-72
2022/06/23 11:24:40;;;;;;;7.03;2.08;;;;;;;;;;5085805;28;20084;-73
2022/06/23 11:27:12;;;;;;;3.95;1.73;;;;;;;;;;5106827;28;20064;-73
2022/06/23 11:29:44;;;;;;;3.83;2.20;;;;;;;;;;5079208;28;20041;-73
2022/06/23 11:32:20;;;;;;;6.80;2.00;;;;;;;;;;5068450;28;20049;-72
2022/06/23 11:34:52;;;;;;;4.82;1.95;;;;;;;;;;5070920;28;20111;-73
2022/06/23 11:37:28;;;;;;;4.07;1.90;;;;;;;;;;5077965;28;20072;-73
2022/06/23 11:40:04;;;;;;;3.53;1.88;;;;;;;;;;5068166;28;20043;-73
2022/06/23 11:42:48;;;;;;;2.35;1.58;;;;;;;;;;5068103;28;20099;-72
2022/06/23 11:45:20;;;;;;;4.53;1.60;;;;;;;;;;5082103;28;20048;-73
2022/06/23 11:47:54;;;;;;;6.45;2.00;;;;;;;;;;5068254;28;20048;-73
2022/06/23 11:50:35;;;;;;;4.32;1.80;;;;;;;;;;5098655;28;20072;-73
2022/06/23 11:53:05;;;;;;;3.33;1.70;;;;;;;;;;5077047;28;20059;-73
2022/06/23 11:55:40;;;;;;;5.25;1.70;;;;;;;;;;5069659;28;20048;-73
2022/06/23 11:58:27;;;;;;;5.50;2.10;;;;;;;;;;5078591;28;20052;-73
2022/06/23 12:00:56;;;;;;;5.82;1.70;;;;;;;;;;5081685;28;20036;-74
2022/06/23 12:03:25;;;;;;;4.78;2.05;;;;;;;;;;5083132;28;20088;-74
2022/06/23 12:06:04;;;;;;;2.33;1.50;;;;;;;;;;5083085;28;20048;-74
2022/06/23 12:08:30;;;;;;;4.38;1.73;;;;;;;;;;5078520;28;20048;-74
2022/06/23 12:10:56;;;;;;;6.78;1.58;;;;;;;;;;5070634;28;20337;-73
2022/06/23 12:13:24;;;;;;;5.57;1.73;;;;;;;;;;5076334;28;20051;-73
2022/06/23 12:15:51;;;;;;;4.03;1.73;;;;;;;;;;5087380;28;20060;-73
2022/06/23 12:18:20;;;;;;;3.35;1.50;;;;;;;;;;5087440;28;20041;-74
2022/06/23 12:21:12;;;;;;;5.10;1.70;;;;;;;;;;5073399;28;20048;-74
2022/06/23 12:23:54;;;;;;;2.88;1.73;;;;;;;;;;5066179;28;20063;-74
2022/06/23 12:26:22;;;;;;;3.55;2.10;;;;;;;;;;5082611;28;20060;-73
2022/06/23 12:29:07;;;;;;;5.35;1.70;;;;;;;;;;5077053;28;20502;-73
2022/06/23 12:32:05;;;;;;;5.40;1.50;;;;;;;;;;5068445;28;20087;-74
2022/06/23 12:34:50;;;;;;;3.88;1.48;;;;;;;;;;5079384;28;20080;-73
2022/06/23 12:37:39;;;;;;;2.55;1.20;;;;;;;;;;5068169;28;20489;-73
2022/06/23 12:40:15;;;;;;;3.17;1.38;;;;;;;;;;5067896;28;20059;-72
2022/06/23 12:42:45;;;;;;;4.95;1.10;;;;;;;;;;5083738;28;20056;-72
2022/06/23 12:45:30;;;;;;;2.15;1.13;;;;;;;;;;5084656;28;20048;-72
2022/06/23 12:48:15;;;;;;;3.53;1.38;;;;;;;;;;5064443;28;20051;-72
2022/06/23 12:50:49;;;;;;;2.60;1.55;;;;;;;;;;5082642;28;20056;-72
2022/06/23 12:53:30;;;;;;;1.88;0.95;;;;;;;;;;5064132;28;20059;-72
2022/06/23 12:56:09;;;;;;;2.83;1.25;;;;;;;;;;5099401;28;20052;-72
2022/06/23 12:58:46;;;;;;;1.77;0.93;;;;;;;;;;5059352;28;20079;-72
2022/06/23 13:01:12;;;;;;;3.97;1.42;;;;;;;;;;5071163;28;20044;-72
2022/06/23 13:03:39;;;;;;;1.30;1.10;;;;;;;;;;5083819;28;20095;-72
2022/06/23 13:06:20;;;;;;;5.10;1.40;;;;;;;;;;5084065;28;20044;-73
2022/06/23 13:08:52;;;;;;;2.45;1.40;;;;;;;;;;5083985;28;20096;-72
2022/06/23 13:11:27;;;;;;;3.22;1.10;;;;;;;;;;5072335;28;20056;-71
2022/06/23 13:13:55;;;;;;;3.13;1.40;;;;;;;;;;5072889;28;20513;-72
2022/06/23 13:16:29;;;;;;;3.17;1.40;;;;;;;;;;5066251;28;20069;-71
2022/06/23 13:19:07;;;;;;;5.30;1.42;;;;;;;;;;5078753;28;20100;-71
2022/06/23 13:21:35;;;;;;;3.63;1.27;;;;;;;;;;5066229;28;20142;-70
2022/06/23 13:24:01;;;;;;;3.17;1.35;;;;;;;;;;5066135;28;20040;-70
2022/06/23 13:26:34;;;;;;;4.25;1.25;;;;;;;;;;5070782;28;20044;-71
2022/06/23 13:29:15;;;;;;;2.47;1.30;;;;;;;;;;5084652;28;20049;-70
2022/06/23 13:31:50;;;;;;;5.97;1.45;;;;;;;;;;5066179;28;20060;-70
2022/06/23 13:34:19;;;;;;;2.42;1.27;;;;;;;;;;5079017;28;20059;-70
2022/06/23 13:36:50;;;;;;;2.70;1.30;;;;;;;;;;5066395;28;20041;-71
2022/06/23 13:39:35;;;;;;;2.47;1.13;;;;;;;;;;5065990;28;20049;-71
2022/06/23 13:42:01;;;;;;;4.00;1.45;;;;;;;;;;5082768;28;20055;-71
2022/06/23 13:44:27;;;;;;;;;;;;;;;;;;5077360;28;20040;-70
2022/06/23 13:47:00;;;;;;;5.13;1.42;;;;;;;;;;5080213;28;19988;-71
2022/06/23 13:49:33;;;;;;;4.90;1.42;;;;;;;;;;5085674;28;20045;-70
2022/06/23 13:52:05;;;;;;;3.33;1.35;;;;;;;;;;5070242;28;20053;-69
2022/06/23 13:54:35;;;;;;;3.08;1.25;;;;;;;;;;5072394;28;20079;-70
2022/06/23 13:57:11;;;;;;;1.63;1.02;;;;;;;;;;5071074;28;20057;-70
2022/06/23 13:59:51;;;;;;;9.85;1.33;;;;;;;;;;5073192;28;20048;-71
2022/06/23 14:02:22;;;;;;;5.18;1.30;;;;;;;;;;5071394;28;20049;-71
2022/06/23 14:04:51;;;;;;;4.47;1.40;;;;;;;;;;5076913;28;20105;-71
2022/06/23 14:07:21;;;;;;;7.75;1.67;;;;;;;;;;5065178;28;20052;-71
2022/06/23 14:09:52;;;;;;;4.60;1.63;;;;;;;;;;5080638;28;20514;-72
2022/06/23 14:12:18;;;;;;;1.33;1.10;;;;;;;;;;5079450;28;20048;-71
2022/06/23 14:14:47;;;;;;;2.45;1.13;;;;;;;;;;5064993;28;20044;-71
2022/06/23 14:17:13;;;;;;;2.00;1.33;;;;;;;;;;5077867;28;20055;-70
2022/06/23 14:19:44;;;;;;;5.38;1.95;;;;;;;;;;5070882;28;20038;-70
2022/06/23 14:22:22;;;;;;;2.17;1.45;;;;;;;;;;5072337;28;20124;-71
2022/06/23 14:24:48;;;;;;;4.85;1.38;;;;;;;;;;5064994;28;20052;-71
2022/06/23 14:27:19;;;;;;;3.90;1.27;;;;;;;;;;5065038;28;20048;-71
2022/06/23 14:29:45;;;;;;;3.42;1.58;;;;;;;;;;5082415;28;20040;-71
2022/06/23 14:32:25;;;;;;;3.83;1.25;;;;;;;;;;5075246;28;20100;-71
2022/06/23 14:34:54;;;;;;;1.98;1.20;;;;;;;;;;5078526;28;20120;-70
2022/06/23 14:37:30;;;;;;;2.22;1.40;;;;;;;;;;5080251;28;20049;-70
2022/06/23 14:40:00;;;;;;;4.70;1.48;;;;;;;;;;5078771;28;20041;-70
2022/06/23 14:42:44;;;;;;;3.80;1.20;;;;;;;;;;5064856;28;20048;-71
2022/06/23 14:45:10;;;;;;;5.57;1.60;;;;;;;;;;5064767;28;20063;-71
2022/06/23 14:47:36;;;;;;;;;;;;;;;;;;5072085;28;20045;-71
2022/06/23 14:50:21;;;;;;;2.53;1.17;;;;;;;;;;5084902;28;19921;-71
2022/06/23 14:53:05;;;;;;;2.33;1.10;;;;;;;;;;5064443;28;20160;-70
2022/06/23 14:55:41;;;;;;;4.03;1.30;;;;;;;;;;5078626;28;20044;-71
2022/06/23 14:58:24;;;;;;;2.05;1.42;;;;;;;;;;5073968;28;20059;-70
2022/06/23 15:01:12;;;;;;;3.42;1.35;;;;;;;;;;5080843;28;20123;-71
2022/06/23 15:03:56;;;;;;;8.05;1.38;;;;;;;;;;5065653;28;20057;-71
2022/06/23 15:06:31;;;;;;;3.30;1.20;;;;;;;;;;5064393;28;20109;-71
2022/06/23 15:09:08;;;;;;;4.10;1.42;;;;;;;;;;5065005;28;20041;-71
2022/06/23 15:11:57;;;;;;;2.67;1.40;;;;;;;;;;5084545;28;20084;-70
2022/06/23 15:14:29;;;;;;;3.20;1.50;;;;;;;;;;5066954;28;20037;-71
2022/06/23 15:16:55;;;;;;;3.80;1.48;;;;;;;;;;5074714;28;20079;-70
2022/06/23 15:19:21;;;;;;;;;;;;;;;;;;5082698;28;20057;-71
2022/06/23 15:24:35;;;;;;;;;;;;;;;;;;5068123;28;20051;-71
2022/06/23 15:27:12;;;;;;;2.05;1.50;;;;;;;;;;5084252;28;19923;-70
2022/06/23 15:29:38;;;;;;;;;;;;;;;;;;5070655;28;20045;-70
2022/06/23 15:32:07;;;;;;;1.73;1.27;;;;;;;;;;5074262;28;19921;-70